Time;durP1;ratioP1;P1;durP2;ratioP2;P2;SDS_P1;SDS_P2;PMS_P1;PMS_P2;Temp;Humidity;BMP_temperature;BMP_pressure;BME280_temperature;BME280_humidity;BME280_pressure;Samples;Min_cycle;Max_cycle;Signal;HPM_P1;HPM_P2
2022/04/11 00:01:11;;;;;;;10.95;4.97;;;;;;;10.54;45.02;101867.91;5128489;27;20067;-62
2022/04/11 00:03:38;;;;;;;12.95;6.00;;;;;;;10.52;45.13;101861.88;5127946;27;20052;-61
2022/04/11 00:06:06;;;;;;;11.00;5.47;;;;;;;10.50;45.28;101861.25;5116236;28;20055;-62
2022/04/11 00:08:34;;;;;;;13.10;4.75;;;;;;;10.49;45.42;101856.91;5110436;28;20056;-62
2022/04/11 00:11:03;;;;;;;10.43;4.47;;;;;;;10.49;45.39;101861.44;5116522;28;20054;-60
2022/04/11 00:13:31;;;;;;;14.85;4.95;;;;;;;10.47;44.97;101858.13;5110279;28;20076;-61
2022/04/11 00:15:58;;;;;;;9.73;4.50;;;;;;;10.47;45.25;101853.59;5117957;28;20072;-62
2022/04/11 00:18:26;;;;;;;9.90;4.50;;;;;;;10.44;45.41;101844.06;5110068;28;20058;-61
2022/04/11 00:20:54;;;;;;;9.90;5.00;;;;;;;10.43;45.30;101850.47;5107267;28;20086;-61
2022/04/11 00:23:22;;;;;;;13.70;4.90;;;;;;;10.43;45.14;101850.47;5112979;27;20108;-61
2022/04/11 00:25:50;;;;;;;12.00;4.93;;;;;;;10.42;45.54;101850.66;5123514;28;20075;-61
2022/04/11 00:28:19;;;;;;;15.30;4.78;;;;;;;10.39;45.18;101841.16;5117828;28;20119;-61
2022/04/11 00:30:47;;;;;;;9.00;4.38;;;;;;;10.39;45.03;101846.53;5113840;28;20044;-62
2022/04/11 00:33:14;;;;;;;11.15;4.85;;;;;;;10.39;44.97;101840.31;5109128;28;20090;-61
2022/04/11 00:35:42;;;;;;;10.43;4.63;;;;;;;10.37;45.50;101835.16;5119805;27;20047;-62
2022/04/11 00:38:10;;;;;;;11.10;4.10;;;;;;;10.36;45.25;101838.03;5107414;28;20086;-62
2022/04/11 00:40:37;;;;;;;9.27;5.30;;;;;;;10.34;45.72;101837.41;5114559;27;20164;-61
2022/04/11 00:43:05;;;;;;;11.25;4.93;;;;;;;10.33;45.76;101833.88;5122366;27;20131;-61
2022/04/11 00:45:34;;;;;;;10.75;5.00;;;;;;;10.34;45.62;101829.34;5110818;28;20062;-61
2022/04/11 00:48:03;;;;;;;13.18;4.95;;;;;;;10.35;45.52;101831.00;5119510;28;20044;-61
2022/04/11 00:50:31;;;;;;;8.73;4.90;;;;;;;10.35;45.21;101825.63;5120554;28;20071;-61
2022/04/11 00:53:01;;;;;;;8.30;4.38;;;;;;;10.34;45.42;101824.78;5118846;28;20085;-61
2022/04/11 00:55:29;;;;;;;11.38;5.28;;;;;;;10.33;45.48;101815.06;5117099;28;20118;-61
2022/04/11 00:57:57;;;;;;;12.60;4.60;;;;;;;10.31;45.63;101814.44;5111919;27;20044;-61
2022/04/11 01:00:25;;;;;;;11.50;5.07;;;;;;;10.20;45.02;101792.66;5112165;28;20055;-62
2022/04/11 01:02:54;;;;;;;9.00;4.15;;;;;;;10.31;45.69;101805.56;5122343;28;20124;-61
2022/04/11 01:05:22;;;;;;;8.73;4.15;;;;;;;10.23;45.81;101795.78;5107060;28;20043;-61
2022/04/11 01:07:51;;;;;;;9.68;4.65;;;;;;;10.30;45.31;101809.25;5118678;28;20105;-61
2022/04/11 01:10:19;;;;;;;8.38;3.95;;;;;;;10.29;45.31;101815.66;5115317;28;20504;-61
2022/04/11 01:12:47;;;;;;;11.88;4.85;;;;;;;10.29;45.38;101807.59;5117677;28;20102;-61
2022/04/11 01:15:14;;;;;;;8.38;4.40;;;;;;;10.27;45.35;101804.28;5129525;27;20050;-61
2022/04/11 01:17:42;;;;;;;7.15;3.88;;;;;;;10.25;45.53;101804.47;5119575;28;20082;-61
2022/04/11 01:20:16;;;;;;;7.32;4.55;;;;;;;10.25;45.12;101803.66;5109942;28;20051;-62
2022/04/11 01:22:45;;;;;;;6.07;3.83;;;;;;;10.24;45.47;101792.06;5121777;28;20094;-61
2022/04/11 01:25:13;;;;;;;8.05;4.07;;;;;;;10.22;45.31;101796.81;5114295;28;20075;-61
2022/04/11 01:27:42;;;;;;;7.65;3.70;;;;;;;10.22;46.05;101795.97;5116751;27;20167;-62
2022/04/11 01:30:12;;;;;;;7.50;4.18;;;;;;;10.21;45.99;101805.06;5117117;28;20079;-62
2022/04/11 01:32:40;;;;;;;6.90;3.97;;;;;;;10.19;45.89;101799.84;5113377;28;20043;-62
2022/04/11 01:35:19;;;;;;;8.98;4.82;;;;;;;10.19;45.94;101807.91;5122560;28;20040;-61
2022/04/11 01:37:48;;;;;;;11.45;4.50;;;;;;;10.17;45.97;101798.41;5111434;28;20071;-61
2022/04/11 01:40:16;;;;;;;10.07;4.13;;;;;;;10.15;46.00;101800.44;5116073;28;20170;-62
2022/04/11 01:42:44;;;;;;;9.15;4.43;;;;;;;10.15;45.52;101801.28;5113632;28;20052;-62
2022/04/11 01:45:12;;;;;;;6.00;3.90;;;;;;;10.13;45.77;101806.00;5118703;27;20048;-62
2022/04/11 01:47:40;;;;;;;9.43;4.20;;;;;;;10.11;45.75;101795.47;5112713;28;20063;-62
2022/04/11 01:50:09;;;;;;;7.97;4.25;;;;;;;10.11;45.73;101803.53;5117401;28;20083;-61
2022/04/11 01:52:37;;;;;;;9.05;4.40;;;;;;;10.10;46.19;101796.50;5113414;28;20059;-61
2022/04/11 01:55:07;;;;;;;8.57;4.63;;;;;;;10.09;46.33;101796.69;5118174;28;20075;-61
2022/04/11 01:57:44;;;;;;;5.57;4.03;;;;;;;10.08;45.55;101801.22;5105928;28;20105;-61
2022/04/11 02:00:13;;;;;;;7.22;4.05;;;;;;;10.08;46.23;101800.41;5110858;28;20054;-61
2022/04/11 02:02:41;;;;;;;10.25;4.38;;;;;;;10.05;46.01;101798.94;5110353;28;20481;-62
2022/04/11 02:05:09;;;;;;;7.75;4.05;;;;;;;10.05;46.08;101798.09;5106696;28;20048;-60
2022/04/11 02:07:36;;;;;;;7.90;4.10;;;;;;;10.03;46.03;101795.59;5116739;28;20052;-61
2022/04/11 02:10:05;;;;;;;5.95;3.80;;;;;;;10.03;45.81;101786.72;5114778;28;20047;-61
2022/04/11 02:12:34;;;;;;;5.43;3.75;;;;;;;9.98;45.87;101786.47;5111280;28;20091;-61
2022/04/11 02:15:02;;;;;;;6.13;4.00;;;;;;;10.00;46.11;101790.63;5119694;28;20050;-60
2022/04/11 02:17:30;;;;;;;8.05;4.20;;;;;;;10.00;46.54;101787.09;5108270;28;20067;-61
2022/04/11 02:19:57;;;;;;;5.82;4.03;;;;;;;9.99;46.29;101782.75;5121035;28;20165;-60
2022/04/11 02:22:25;;;;;;;6.30;3.70;;;;;;;10.00;46.06;101789.78;5125209;28;20086;-62
2022/04/11 02:24:53;;;;;;;6.03;3.83;;;;;;;9.97;46.54;101787.50;5120052;27;20067;-61
2022/04/11 02:27:21;;;;;;;7.28;3.92;;;;;;;9.96;46.63;101783.97;5120643;28;20047;-62
2022/04/11 02:29:50;;;;;;;6.80;4.15;;;;;;;9.97;45.73;101790.19;5120665;28;20079;-62
2022/04/11 02:32:18;;;;;;;7.45;4.10;;;;;;;9.96;46.38;101786.66;5123840;28;20071;-62
2022/04/11 02:34:45;;;;;;;7.53;4.70;;;;;;;9.95;46.54;101787.69;5118954;27;20075;-62
2022/04/11 02:37:13;;;;;;;6.45;4.07;;;;;;;9.95;46.49;101792.22;5116792;28;20078;-61
2022/04/11 02:39:41;;;;;;;6.93;3.90;;;;;;;9.95;46.02;101792.22;5125955;28;20075;-62
2022/04/11 02:42:09;;;;;;;7.75;4.20;;;;;;;9.94;46.56;101794.09;5116752;28;20083;-61
2022/04/11 02:44:36;;;;;;;8.23;3.63;;;;;;;9.94;46.35;101787.88;5118535;28;20044;-61
2022/04/11 02:47:06;;;;;;;7.03;4.00;;;;;;;9.93;46.49;101794.28;5120538;28;20442;-61
2022/04/11 02:49:34;;;;;;;8.23;3.65;;;;;;;9.91;46.46;101781.06;5117952;28;20063;-61
2022/04/11 02:52:01;;;;;;;9.48;4.32;;;;;;;9.89;45.82;101793.84;5122249;28;20079;-61
2022/04/11 02:54:29;;;;;;;6.10;4.35;;;;;;;9.89;46.65;101791.16;5118646;28;20111;-61
2022/04/11 02:56:57;;;;;;;7.28;4.05;;;;;;;9.88;45.80;101789.50;5110832;28;20076;-60
2022/04/11 02:59:24;;;;;;;6.53;3.65;;;;;;;9.86;46.50;101786.19;5111151;28;20071;-61
2022/04/11 03:01:52;;;;;;;8.20;4.20;;;;;;;9.86;46.84;101788.03;5112502;28;20702;-60
2022/04/11 03:04:21;;;;;;;6.82;3.97;;;;;;;9.84;46.01;101782.03;5109171;28;20055;-60
2022/04/11 03:06:49;;;;;;;10.45;4.38;;;;;;;9.82;46.08;101790.28;5113470;28;20040;-61
2022/04/11 03:09:17;;;;;;;5.15;3.72;;;;;;;9.79;46.71;101786.13;5111921;28;20083;-62
2022/04/11 03:11:45;;;;;;;6.13;3.78;;;;;;;9.79;46.21;101786.13;5109652;27;20048;-61
2022/04/11 03:14:12;;;;;;;7.57;4.28;;;;;;;9.77;47.06;101781.97;5120117;28;20060;-62
2022/04/11 03:16:41;;;;;;;10.43;4.97;;;;;;;9.76;46.19;101786.50;5120539;28;20111;-61
2022/04/11 03:19:10;;;;;;;8.82;4.65;;;;;;;9.73;46.27;101778.84;5121339;28;20052;-62
2022/04/11 03:21:39;;;;;;;7.47;3.90;;;;;;;9.73;46.38;101780.69;5115683;28;20073;-61
2022/04/11 03:24:07;;;;;;;6.18;3.95;;;;;;;9.70;46.83;101784.59;5108034;28;20055;-60
2022/04/11 03:26:35;;;;;;;6.57;4.07;;;;;;;9.67;46.81;101782.28;5111591;28;20077;-61
2022/04/11 03:29:03;;;;;;;6.75;3.70;;;;;;;9.68;46.48;101783.13;5123696;28;20074;-61
2022/04/11 03:31:31;;;;;;;6.20;3.70;;;;;;;9.64;46.74;101777.31;5122428;28;20075;-61
2022/04/11 03:33:59;;;;;;;6.55;3.90;;;;;;;9.64;46.70;101781.84;5117440;28;20039;-60
2022/04/11 03:36:27;;;;;;;8.15;3.92;;;;;;;9.63;46.95;101780.19;5120133;28;20082;-60
2022/04/11 03:38:56;;;;;;;7.75;4.63;;;;;;;9.61;47.33;101777.69;5118016;28;20078;-61
2022/04/11 03:41:23;;;;;;;5.75;4.22;;;;;;;9.60;46.63;101775.22;5111592;28;20090;-60
2022/04/11 03:43:51;;;;;;;5.88;3.83;;;;;;;9.59;47.32;101779.75;5119842;28;20051;-60
2022/04/11 03:46:19;;;;;;;8.98;4.70;;;;;;;9.56;47.10;101780.13;5121017;28;20103;-61
2022/04/11 03:48:46;;;;;;;6.05;3.83;;;;;;;9.56;47.06;101773.94;5111659;28;20078;-60
2022/04/11 03:51:14;;;;;;;6.75;3.83;;;;;;;9.56;46.66;101780.13;5118123;27;20129;-60
2022/04/11 03:53:42;;;;;;;6.63;4.40;;;;;;;9.54;47.56;101781.34;5114671;28;20527;-61
2022/04/11 03:56:13;;;;;;;7.93;4.18;;;;;;;9.52;46.70;101778.84;5108218;28;20059;-62
2022/04/11 03:58:41;;;;;;;5.78;4.15;;;;;;;9.51;46.65;101781.72;5122907;28;20071;-61
2022/04/11 04:01:09;;;;;;;5.45;4.13;;;;;;;9.49;47.29;101781.91;5111962;28;20096;-60
2022/04/11 04:03:38;;;;;;;7.07;4.65;;;;;;;9.45;47.50;101778.78;5116232;27;20142;-59
2022/04/11 04:06:06;;;;;;;7.70;4.13;;;;;;;9.48;46.58;101780.25;5118660;28;20055;-60
2022/04/11 04:08:33;;;;;;;6.32;3.90;;;;;;;9.46;47.00;101780.44;5112503;28;20044;-60
2022/04/11 04:11:01;;;;;;;6.90;4.38;;;;;;;9.45;46.93;101772.59;5119400;28;20515;-62
2022/04/11 04:13:38;;;;;;;8.93;4.50;;;;;;;9.44;47.68;101774.44;5126506;27;20066;-62
2022/04/11 04:16:06;;;;;;;6.22;4.13;;;;;;;9.43;47.18;101780.00;5120263;28;20071;-59
2022/04/11 04:18:34;;;;;;;10.60;4.50;;;;;;;9.42;47.39;101779.16;5126113;27;20048;-61
2022/04/11 04:21:01;;;;;;;5.60;4.00;;;;;;;9.42;46.87;101772.97;5114670;28;20076;-61
2022/04/11 04:23:29;;;;;;;6.78;4.18;;;;;;;9.42;47.10;101768.44;5112743;28;20047;-60
2022/04/11 04:25:57;;;;;;;8.07;4.32;;;;;;;9.42;47.02;101762.25;5121470;28;20090;-61
2022/04/11 04:28:25;;;;;;;8.07;4.45;;;;;;;9.41;46.92;101760.59;5117558;28;20083;-60
2022/04/11 04:30:54;;;;;;;6.75;4.10;;;;;;;9.40;47.28;101770.47;5112985;28;20154;-60
2022/04/11 04:33:22;;;;;;;7.55;4.40;;;;;;;9.39;47.44;101763.47;5116251;28;20153;-60
2022/04/11 04:35:50;;;;;;;7.45;5.00;;;;;;;9.37;47.32;101773.53;5118068;27;20214;-60
2022/04/11 04:38:17;;;;;;;6.38;4.35;;;;;;;9.36;46.95;101771.06;5112593;28;20074;-59
2022/04/11 04:40:45;;;;;;;7.90;4.15;;;;;;;9.34;47.44;101757.84;5112564;28;20051;-59
2022/04/11 04:43:13;;;;;;;6.88;4.53;;;;;;;9.33;47.91;101764.22;5107498;28;20087;-60
2022/04/11 04:45:40;;;;;;;7.88;4.30;;;;;;;9.34;47.52;101760.50;5109101;28;20044;-59
2022/04/11 04:48:11;;;;;;;7.68;4.50;;;;;;;9.33;47.58;101760.72;5107205;28;20043;-61
2022/04/11 04:50:39;;;;;;;7.45;4.72;;;;;;;9.30;47.63;101758.41;5113179;28;20732;-61
2022/04/11 04:53:06;;;;;;;6.68;4.25;;;;;;;9.27;47.54;101756.94;5107828;28;20090;-61
2022/04/11 04:55:34;;;;;;;6.63;4.03;;;;;;;9.28;47.68;101757.78;5116065;28;20051;-61
2022/04/11 04:58:02;;;;;;;10.13;5.18;;;;;;;9.25;47.62;101760.84;5110483;27;21180;-61
2022/04/11 05:00:29;;;;;;;5.28;4.13;;;;;;;9.24;48.02;101761.84;5123839;27;20079;-61
2022/04/11 05:02:57;;;;;;;13.48;4.25;;;;;;;9.22;47.59;101766.56;5120930;27;20071;-60
2022/04/11 05:05:27;;;;;;;7.97;4.18;;;;;;;9.20;47.96;101764.09;5123574;27;20060;-61
2022/04/11 05:07:54;;;;;;;7.50;5.20;;;;;;;9.19;47.65;101756.22;5106914;28;20067;-60
2022/04/11 05:10:22;;;;;;;9.35;4.60;;;;;;;9.18;47.42;101755.41;5115572;28;20078;-62
2022/04/11 05:12:50;;;;;;;7.15;4.47;;;;;;;9.17;48.33;101750.22;5105696;28;20063;-60
2022/04/11 05:15:18;;;;;;;7.30;4.18;;;;;;;9.14;48.16;101748.75;5112868;27;20143;-61
2022/04/11 05:17:46;;;;;;;5.90;5.03;;;;;;;9.13;47.53;101747.09;5109327;28;20059;-61
2022/04/11 05:20:13;;;;;;;5.82;4.05;;;;;;;9.12;47.87;101745.44;5116495;28;20040;-62
2022/04/11 05:22:43;;;;;;;9.77;4.65;;;;;;;9.12;48.03;101754.31;5121244;27;20059;-61
2022/04/11 05:25:10;;;;;;;12.27;4.80;;;;;;;9.11;47.47;101747.28;5115679;28;20105;-63
2022/04/11 05:27:38;;;;;;;7.40;4.50;;;;;;;9.11;47.59;101751.81;5108132;28;20039;-62
2022/04/11 05:30:07;;;;;;;6.97;4.35;;;;;;;9.09;47.83;101746.63;5120887;28;20075;-60
2022/04/11 05:32:35;;;;;;;8.30;4.47;;;;;;;9.09;47.99;101752.00;5120599;28;20112;-62
2022/04/11 05:35:03;;;;;;;9.75;4.72;;;;;;;9.07;47.40;101745.16;5119082;28;20040;-64
2022/04/11 05:37:31;;;;;;;8.10;4.32;;;;;;;9.07;47.53;101748.69;5112565;28;20039;-62
2022/04/11 05:40:00;;;;;;;6.93;4.63;;;;;;;9.08;48.27;101749.50;5109442;28;20083;-61
2022/04/11 05:42:28;;;;;;;10.55;4.93;;;;;;;9.06;47.14;101744.34;5125168;28;20043;-64
2022/04/11 05:44:56;;;;;;;7.78;4.47;;;;;;;9.05;48.48;101748.03;5122838;28;20078;-65
2022/04/11 05:47:23;;;;;;;6.90;4.68;;;;;;;9.05;47.93;101747.22;5117716;28;20044;-65
2022/04/11 05:49:51;;;;;;;7.85;4.40;;;;;;;9.06;48.07;101748.88;5115481;28;20059;-63
2022/04/11 05:52:21;;;;;;;8.93;4.32;;;;;;;9.05;47.94;101744.53;5119944;28;20040;-63
2022/04/11 05:54:48;;;;;;;9.85;4.25;;;;;;;9.06;47.72;101748.88;5126061;28;20075;-63
2022/04/11 05:57:17;;;;;;;9.68;4.60;;;;;;;9.04;48.08;101748.22;4751702;28;9999706;-65
2022/04/11 05:59:45;;;;;;;9.73;4.43;;;;;;;9.03;47.94;101746.56;5118056;28;20422;-64
2022/04/11 06:02:13;;;;;;;6.93;4.28;;;;;;;8.92;48.13;101722.94;5116041;28;20489;-63
2022/04/11 06:04:41;;;;;;;9.57;4.35;;;;;;;9.07;48.09;101745.16;5127115;27;20110;-64
2022/04/11 06:07:09;;;;;;;10.15;4.18;;;;;;;9.08;47.47;101739.63;5116803;28;20050;-64
2022/04/11 06:09:39;;;;;;;7.40;4.25;;;;;;;9.09;47.18;101737.75;5122791;28;20087;-66
2022/04/11 06:12:13;;;;;;;6.53;3.83;;;;;;;9.15;47.85;101750.41;5116282;28;20054;-64
2022/04/11 06:14:42;;;;;;;8.15;3.60;;;;;;;9.20;47.82;101741.78;5130936;27;20127;-64
2022/04/11 06:17:10;;;;;;;9.45;4.65;;;;;;;9.22;47.43;101742.44;5114632;28;20039;-64
2022/04/11 06:19:37;;;;;;;8.75;4.10;;;;;;;9.24;47.23;101741.22;5129109;27;20083;-63
2022/04/11 06:22:05;;;;;;;6.43;4.05;;;;;;;9.28;48.33;101749.72;5127172;28;20043;-64
2022/04/11 06:24:33;;;;;;;11.93;4.78;;;;;;;9.31;47.76;101750.16;5119905;28;20096;-63
2022/04/11 06:27:01;;;;;;;7.07;4.22;;;;;;;9.32;47.36;101745.63;5131291;27;20099;-63
2022/04/11 06:29:29;;;;;;;7.28;4.22;;;;;;;9.35;47.43;101748.75;5106621;28;20158;-63
2022/04/11 06:32:02;;;;;;;8.02;4.63;;;;;;;9.37;48.20;101745.88;5116085;28;20082;-63
2022/04/11 06:34:30;;;;;;;7.75;4.00;;;;;;;9.38;47.81;101742.19;5125085;28;20090;-64
2022/04/11 06:36:57;;;;;;;14.25;5.03;;;;;;;9.39;47.76;101747.34;5123847;28;20075;-62
2022/04/11 06:39:25;;;;;;;12.15;4.75;;;;;;;9.43;47.74;101747.81;5126994;27;20078;-63
2022/04/11 06:41:53;;;;;;;8.95;4.40;;;;;;;9.44;47.64;101752.16;5125927;28;20047;-62
2022/04/11 06:44:21;;;;;;;7.43;4.15;;;;;;;9.45;47.42;101743.06;5110204;28;20059;-60
2022/04/11 06:46:48;;;;;;;6.95;4.15;;;;;;;9.46;48.27;101740.19;5132213;27;20051;-61
2022/04/11 06:49:17;;;;;;;8.73;4.30;;;;;;;9.49;47.74;101744.34;5120584;28;20165;-61
2022/04/11 06:51:45;;;;;;;7.40;3.95;;;;;;;9.49;47.91;101740.84;5121629;27;20082;-60
2022/04/11 06:54:13;;;;;;;7.82;4.00;;;;;;;9.48;48.41;101745.38;5121315;28;20078;-61
2022/04/11 06:56:41;;;;;;;12.52;5.05;;;;;;;9.52;47.76;101748.50;5123149;28;20047;-61
2022/04/11 06:59:09;;;;;;;8.68;3.80;;;;;;;9.55;48.12;101758.84;5117954;28;20059;-61
2022/04/11 07:01:36;;;;;;;7.13;3.67;;;;;;;9.56;48.42;101757.81;5109892;28;20535;-60
2022/04/11 07:04:05;;;;;;;6.97;3.38;;;;;;;9.59;47.75;101763.63;5113959;28;20112;-62
2022/04/11 07:06:34;;;;;;;6.10;3.45;;;;;;;9.52;47.87;101748.50;5124147;28;20059;-62
2022/04/11 07:09:01;;;;;;;5.47;3.28;;;;;;;9.64;48.47;101763.06;5122440;28;20047;-61
2022/04/11 07:11:31;;;;;;;9.70;3.70;;;;;;;9.66;48.41;101755.66;5125996;28;20067;-61
2022/04/11 07:13:59;;;;;;;8.70;3.78;;;;;;;9.69;48.34;101755.25;5117271;28;20074;-60
2022/04/11 07:16:26;;;;;;;6.38;3.25;;;;;;;9.68;48.15;101757.13;5126450;28;20047;-61
2022/04/11 07:18:54;;;;;;;5.28;3.42;;;;;;;9.70;47.95;101747.00;5125186;28;20044;-61
2022/04/11 07:21:22;;;;;;;7.28;3.22;;;;;;;9.69;48.04;101742.66;5124874;28;20055;-60
2022/04/11 07:23:51;;;;;;;7.68;3.85;;;;;;;9.73;48.32;101741.25;5122444;28;20111;-61
2022/04/11 07:26:19;;;;;;;7.78;3.28;;;;;;;9.75;48.21;101739.22;5122703;27;20048;-61
2022/04/11 07:28:47;;;;;;;6.60;2.92;;;;;;;9.78;48.20;101744.19;5121482;27;20178;-60
2022/04/11 07:31:15;;;;;;;8.20;3.20;;;;;;;9.81;48.59;101737.59;5109684;28;20080;-64
2022/04/11 07:33:43;;;;;;;7.70;4.03;;;;;;;9.83;48.66;101737.41;5109814;28;20054;-62
2022/04/11 07:36:10;;;;;;;6.72;3.00;;;;;;;9.84;48.31;101737.22;5113586;28;20495;-63
2022/04/11 07:38:38;;;;;;;5.28;3.13;;;;;;;9.87;48.49;101736.00;5122722;28;20048;-64
2022/04/11 07:41:07;;;;;;;6.82;3.33;;;;;;;9.89;48.34;101729.41;5123081;28;20040;-62
2022/04/11 07:43:35;;;;;;;6.88;2.50;;;;;;;9.91;48.61;101724.66;5120079;28;20086;-63
2022/04/11 07:46:05;;;;;;;4.63;2.40;;;;;;;9.90;48.92;101717.63;5124248;28;20460;-64
2022/04/11 07:48:33;;;;;;;7.05;2.80;;;;;;;9.93;49.25;101729.84;5113791;28;20051;-62
2022/04/11 07:51:00;;;;;;;8.00;2.85;;;;;;;9.93;48.52;101719.09;5125938;28;20043;-62
2022/04/11 07:53:28;;;;;;;4.78;2.60;;;;;;;9.94;49.23;101713.53;5117767;28;20099;-61
2022/04/11 07:55:56;;;;;;;4.95;2.92;;;;;;;9.96;49.35;101708.78;5124360;28;20047;-61
2022/04/11 07:58:25;;;;;;;5.18;2.90;;;;;;;9.99;48.80;101710.25;5132083;27;20047;-62
2022/04/11 08:00:53;;;;;;;5.88;2.35;;;;;;;9.95;48.98;101698.25;5125018;28;20082;-62
2022/04/11 08:03:21;;;;;;;4.40;2.80;;;;;;;10.02;49.34;101708.00;5120100;28;20047;-62
2022/04/11 08:05:49;;;;;;;7.55;2.78;;;;;;;10.05;49.13;101709.47;5125734;28;20051;-62
2022/04/11 08:08:17;;;;;;;7.60;2.78;;;;;;;10.05;49.10;101701.41;5113859;28;20430;-63
2022/04/11 08:10:45;;;;;;;5.20;2.33;;;;;;;10.05;49.22;101691.50;5125579;28;20044;-63
2022/04/11 08:13:12;;;;;;;6.45;2.58;;;;;;;10.10;49.36;101686.38;5110760;28;20496;-62
2022/04/11 08:15:42;;;;;;;3.67;2.33;;;;;;;10.11;48.99;101688.03;5125581;28;20559;-62
2022/04/11 08:18:10;;;;;;;3.90;2.30;;;;;;;10.14;49.55;101691.34;5120798;27;20051;-62
2022/04/11 08:20:37;;;;;;;6.45;2.55;;;;;;;10.15;49.42;101683.09;5116858;28;20044;-62
2022/04/11 08:23:05;;;;;;;6.45;2.53;;;;;;;10.14;49.40;101686.78;5124798;28;20400;-63
2022/04/11 08:25:33;;;;;;;9.75;2.90;;;;;;;10.15;49.66;101677.72;5113613;28;20055;-63
2022/04/11 08:28:01;;;;;;;5.97;2.80;;;;;;;10.18;49.52;101673.81;5122532;28;20118;-62
2022/04/11 08:30:28;;;;;;;6.50;2.50;;;;;;;10.28;49.77;101677.81;5125806;28;20112;-62
2022/04/11 08:32:57;;;;;;;6.90;2.30;;;;;;;10.39;49.21;101674.56;5113934;28;20052;-62
2022/04/11 08:35:25;;;;;;;5.90;2.60;;;;;;;10.56;48.94;101671.50;5118707;28;20473;-62
2022/04/11 08:37:53;;;;;;;7.35;2.08;;;;;;;10.76;49.09;101673.22;5122515;28;20106;-62
2022/04/11 08:40:21;;;;;;;5.97;2.30;;;;;;;10.97;48.41;101671.41;5121583;28;20082;-62
2022/04/11 08:42:50;;;;;;;8.48;2.20;;;;;;;11.20;47.81;101668.31;5124326;28;20055;-62
2022/04/11 08:45:20;;;;;;;4.88;2.50;;;;;;;11.41;47.33;101663.56;5121007;28;20044;-62
2022/04/11 08:47:48;;;;;;;4.53;2.15;;;;;;;11.61;46.87;101665.41;5120360;28;20047;-62
2022/04/11 08:50:18;;;;;;;4.72;1.90;;;;;;;11.83;46.56;101663.34;5123526;28;20054;-62
2022/04/11 08:52:49;;;;;;;6.40;2.45;;;;;;;11.99;46.13;101665.59;5122880;28;20050;-60
2022/04/11 08:55:17;;;;;;;5.57;2.25;;;;;;;12.03;45.94;101664.97;5116015;28;20044;-61
2022/04/11 08:57:45;;;;;;;5.47;2.40;;;;;;;11.90;46.33;101656.91;5109596;28;20059;-63
2022/04/11 09:00:15;;;;;;;6.45;1.83;;;;;;;11.83;46.58;101668.75;4757352;27;9999671;-61
2022/04/11 09:02:44;;;;;;;3.53;1.80;;;;;;;11.73;46.92;101671.81;5111339;28;20082;-62
2022/04/11 09:05:19;;;;;;;4.32;2.17;;;;;;;11.60;46.95;101669.16;5100648;28;20047;-62
2022/04/11 09:07:50;;;;;;;6.53;2.67;;;;;;;11.51;47.57;101673.09;5098832;28;20071;-62
2022/04/11 09:10:20;;;;;;;4.72;2.00;;;;;;;11.46;47.94;101665.63;5109097;27;20047;-63
2022/04/11 09:12:49;;;;;;;3.92;2.20;;;;;;;11.41;47.91;101658.19;5109262;27;20052;-62
2022/04/11 09:15:17;;;;;;;4.63;1.80;;;;;;;11.36;48.17;101660.66;5102387;28;20048;-60
2022/04/11 09:17:46;;;;;;;4.90;2.10;;;;;;;11.36;48.60;101662.53;5111368;28;20100;-61
2022/04/11 09:20:16;;;;;;;4.60;2.00;;;;;;;11.31;48.63;101644.31;5119274;28;20082;-65
2022/04/11 09:22:44;;;;;;;5.22;2.08;;;;;;;11.28;48.92;101651.97;5128371;27;20061;-61
2022/04/11 09:25:14;;;;;;;4.47;2.28;;;;;;;11.27;49.05;101647.63;5099630;28;20150;-62
2022/04/11 09:27:43;;;;;;;8.13;2.40;;;;;;;11.47;49.97;101653.00;5110928;28;20123;-65
2022/04/11 09:30:19;;;;;;;4.50;1.98;;;;;;;11.43;49.79;101635.63;5110988;28;20048;-66
2022/04/11 09:33:05;;;;;;;5.10;1.90;;;;;;;11.34;49.44;101627.75;5123435;27;20051;-66
2022/04/11 09:35:35;;;;;;;3.10;1.60;;;;;;;11.31;49.52;101622.78;5105485;28;20052;-66
2022/04/11 09:38:08;;;;;;;4.35;1.80;;;;;;;11.39;52.31;101627.97;5119096;28;20084;-66
2022/04/11 09:40:39;;;;;;;4.40;1.85;;;;;;;11.50;51.05;101621.13;5106488;28;20051;-66
2022/04/11 09:43:07;;;;;;;3.03;1.77;;;;;;;11.50;50.89;101622.97;5116848;27;20043;-66
2022/04/11 09:45:41;;;;;;;4.47;2.08;;;;;;;11.39;50.58;101624.44;5100029;28;20092;-65
2022/04/11 09:48:09;;;;;;;5.18;2.88;;;;;;;11.34;50.33;101624.22;5110443;28;20429;-68
2022/04/11 09:50:37;;;;;;;5.10;2.08;;;;;;;11.22;50.35;101609.75;5099453;28;20147;-66
2022/04/11 09:53:10;;;;;;;6.25;2.30;;;;;;;11.27;49.98;101612.66;5103749;28;20157;-67
2022/04/11 09:55:41;;;;;;;5.97;2.00;;;;;;;11.26;50.52;101608.31;5132675;28;20311;-67
2022/04/11 09:58:09;;;;;;;5.80;1.90;;;;;;;11.29;50.33;101600.63;5105366;28;20139;-67
2022/04/11 10:00:38;;;;;;;5.40;2.13;;;;;;;11.36;50.69;101598.78;5119918;28;20101;-66
2022/04/11 10:03:07;;;;;;;6.85;1.83;;;;;;;11.37;50.52;101596.91;5113157;28;20598;-66
2022/04/11 10:05:36;;;;;;;3.17;1.95;;;;;;;11.37;50.38;101595.03;5118603;28;20078;-67
2022/04/11 10:08:05;;;;;;;3.53;1.70;;;;;;;11.37;50.41;101591.53;5115475;28;20071;-67
2022/04/11 10:10:35;;;;;;;4.13;1.65;;;;;;;11.37;50.32;101588.84;5119106;28;20047;-67
2022/04/11 10:13:07;;;;;;;4.22;1.73;;;;;;;11.43;50.15;101598.75;5102231;28;20052;-67
2022/04/11 10:15:37;;;;;;;4.15;2.08;;;;;;;11.52;50.51;101600.19;5119305;28;20055;-65
2022/04/11 10:18:06;;;;;;;4.88;2.00;;;;;;;11.54;50.29;101591.91;4752884;28;10000506;-66
2022/04/11 10:20:36;;;;;;;5.90;2.00;;;;;;;11.54;50.15;101589.22;5112619;28;20141;-66
2022/04/11 10:23:12;;;;;;;4.65;2.10;;;;;;;11.53;50.14;101593.78;5100992;28;20052;-65
2022/04/11 10:25:46;;;;;;;7.07;1.90;;;;;;;11.58;50.96;101585.91;5110622;28;20047;-66
2022/04/11 10:28:16;;;;;;;4.68;1.88;;;;;;;11.62;50.97;101583.63;5118744;28;20059;-66
2022/04/11 10:30:45;;;;;;;5.45;1.60;;;;;;;11.56;51.29;101574.50;5109145;28;20107;-66
2022/04/11 10:33:13;;;;;;;4.05;1.52;;;;;;;11.79;53.49;101576.75;5119386;28;20047;-65
2022/04/11 10:35:43;;;;;;;3.35;1.42;;;;;;;11.96;53.45;101577.94;5115506;28;20055;-65
2022/04/11 10:38:12;;;;;;;6.85;1.80;;;;;;;12.05;53.75;101578.53;5112683;28;20062;-65
2022/04/11 10:40:49;;;;;;;4.78;2.00;;;;;;;12.02;51.05;101581.66;5110130;28;20044;-65
2022/04/11 10:43:38;;;;;;;2.08;1.05;;;;;;;12.03;52.34;101580.63;5113942;28;20062;-65
2022/04/11 10:46:06;;;;;;;4.97;1.48;;;;;;;12.03;52.41;101580.63;5121708;27;20572;-66
2022/04/11 10:48:58;;;;;;;4.00;1.52;;;;;;;12.14;52.52;101581.78;5105351;28;20153;-66
2022/04/11 10:51:26;;;;;;;5.18;1.95;;;;;;;12.27;52.69;101569.06;5122803;28;20047;-66
2022/04/11 10:54:17;;;;;;;2.38;1.50;;;;;;;12.26;52.14;101564.72;5122955;28;20059;-66
2022/04/11 10:57:05;;;;;;;4.78;1.65;;;;;;;12.39;52.73;101561.97;5118826;27;20568;-66
2022/04/11 11:00:03;;;;;;;5.20;1.88;;;;;;;12.47;53.09;101544.69;5115674;28;20044;-66
2022/04/11 11:03:06;;;;;;;2.92;1.90;;;;;;;12.42;52.61;101552.63;5102543;28;20080;-66
2022/04/11 11:05:36;;;;;;;6.95;1.98;;;;;;;12.42;51.45;101546.41;5114718;28;20047;-65
2022/04/11 11:08:27;;;;;;;4.57;1.63;;;;;;;12.47;51.57;101543.88;5113579;27;20052;-65
2022/04/11 11:10:57;;;;;;;5.55;1.70;;;;;;;12.47;51.38;101531.22;5117575;28;20039;-65
2022/04/11 11:13:31;;;;;;;4.47;1.70;;;;;;;12.57;51.35;101526.19;5122379;28;20051;-64
2022/04/11 11:16:01;;;;;;;3.80;1.50;;;;;;;12.58;51.12;101518.91;5119416;28;20070;-66
2022/04/11 11:19:07;;;;;;;4.22;1.33;;;;;;;12.59;50.57;101518.69;5114100;27;20104;-66
2022/04/11 11:22:03;;;;;;;3.72;1.80;;;;;;;12.47;50.18;101492.66;5116123;28;20078;-66
2022/04/11 11:24:31;;;;;;;4.90;1.48;;;;;;;12.70;51.65;101512.59;5111311;28;20087;-65
2022/04/11 11:27:06;;;;;;;5.00;1.42;;;;;;;12.71;51.00;101497.25;5119058;28;20101;-65
2022/04/11 11:29:42;;;;;;;3.22;1.50;;;;;;;12.98;50.92;101500.53;5120450;27;20097;-65
2022/04/11 11:32:13;;;;;;;5.95;2.22;;;;;;;12.95;51.00;101488.31;5125750;28;20119;-66
2022/04/11 11:34:43;;;;;;;3.70;1.65;;;;;;;12.96;50.88;101484.56;5125462;28;20143;-66
2022/04/11 11:37:13;;;;;;;6.70;1.58;;;;;;;13.03;50.38;101477.22;5121856;28;20064;-66
2022/04/11 11:39:43;;;;;;;3.60;1.80;;;;;;;13.00;49.80;101472.28;5125247;27;20043;-65